sensor_id;sensor_type;location;lat;lon;timestamp;temperature;humidity
39847;DHT22;25517;52.422;10.782;2023-02-28T00:02:18;-0.20;99.90
39847;DHT22;25517;52.422;10.782;2023-02-28T00:04:43;-0.20;99.90
39847;DHT22;25517;52.422;10.782;2023-02-28T00:07:09;-0.20;99.90
39847;DHT22;25517;52.422;10.782;2023-02-28T00:09:35;-0.20;99.90
39847;DHT22;25517;52.422;10.782;2023-02-28T00:12:00;-0.20;99.90
39847;DHT22;25517;52.422;10.782;2023-02-28T00:14:36;-0.20;99.90
39847;DHT22;25517;52.422;10.782;2023-02-28T00:17:01;-0.10;99.90
39847;DHT22;25517;52.422;10.782;2023-02-28T00:19:27;-0.20;99.90
39847;DHT22;25517;52.422;10.782;2023-02-28T00:21:52;-0.20;99.90
39847;DHT22;25517;52.422;10.782;2023-02-28T00:24:18;-0.20;99.90
39847;DHT22;25517;52.422;10.782;2023-02-28T00:26:43;-0.20;99.90
39847;DHT22;25517;52.422;10.782;2023-02-28T00:29:09;-0.30;99.90
39847;DHT22;25517;52.422;10.782;2023-02-28T00:31:35;-0.30;99.90
39847;DHT22;25517;52.422;10.782;2023-02-28T00:34:00;-0.30;99.90
39847;DHT22;25517;52.422;10.782;2023-02-28T00:36:26;-0.20;99.90
39847;DHT22;25517;52.422;10.782;2023-02-28T00:38:52;-0.20;99.90
39847;DHT22;25517;52.422;10.782;2023-02-28T00:41:17;-0.20;99.90
39847;DHT22;25517;52.422;10.782;2023-02-28T00:43:43;-0.20;99.90
39847;DHT22;25517;52.422;10.782;2023-02-28T00:46:09;-0.20;99.90
39847;DHT22;25517;52.422;10.782;2023-02-28T00:48:34;-0.30;99.90
39847;DHT22;25517;52.422;10.782;2023-02-28T00:51:01;-0.30;99.90
39847;DHT22;25517;52.422;10.782;2023-02-28T00:53:27;-0.40;99.90
39847;DHT22;25517;52.422;10.782;2023-02-28T00:55:53;-0.40;99.90
39847;DHT22;25517;52.422;10.782;2023-02-28T00:58:18;-0.40;99.90
39847;DHT22;25517;52.422;10.782;2023-02-28T01:00:44;-0.40;99.90
39847;DHT22;25517;52.422;10.782;2023-02-28T01:03:15;-0.40;99.90
39847;DHT22;25517;52.422;10.782;2023-02-28T01:05:40;-0.40;99.90
39847;DHT22;25517;52.422;10.782;2023-02-28T01:08:06;-0.40;99.90
39847;DHT22;25517;52.422;10.782;2023-02-28T01:10:32;-0.40;99.90
39847;DHT22;25517;52.422;10.782;2023-02-28T01:12:58;-0.40;99.90
39847;DHT22;25517;52.422;10.782;2023-02-28T01:15:23;-0.40;99.90
39847;DHT22;25517;52.422;10.782;2023-02-28T01:17:49;-0.30;99.90
39847;DHT22;25517;52.422;10.782;2023-02-28T01:20:14;-0.40;99.90
39847;DHT22;25517;52.422;10.782;2023-02-28T01:22:40;-0.40;99.90
39847;DHT22;25517;52.422;10.782;2023-02-28T01:25:06;-0.40;99.90
39847;DHT22;25517;52.422;10.782;2023-02-28T01:27:33;-0.40;99.90
39847;DHT22;25517;52.422;10.782;2023-02-28T01:29:58;-0.30;99.90
39847;DHT22;25517;52.422;10.782;2023-02-28T01:32:24;-0.30;99.90
39847;DHT22;25517;52.422;10.782;2023-02-28T01:34:49;-0.30;99.90
39847;DHT22;25517;52.422;10.782;2023-02-28T01:37:15;-0.30;99.90
39847;DHT22;25517;52.422;10.782;2023-02-28T01:39:40;-0.30;99.90
39847;DHT22;25517;52.422;10.782;2023-02-28T01:42:09;-0.30;99.90
39847;DHT22;25517;52.422;10.782;2023-02-28T01:44:59;-0.30;99.90
39847;DHT22;25517;52.422;10.782;2023-02-28T01:47:40;-0.20;99.90
39847;DHT22;25517;52.422;10.782;2023-02-28T01:50:11;-0.20;99.90
39847;DHT22;25517;52.422;10.782;2023-02-28T01:52:38;-0.20;99.90
39847;DHT22;25517;52.422;10.782;2023-02-28T01:55:06;-0.30;99.90
39847;DHT22;25517;52.422;10.782;2023-02-28T01:57:35;-0.30;99.90
39847;DHT22;25517;52.422;10.782;2023-02-28T02:00:12;-0.30;99.90
39847;DHT22;25517;52.422;10.782;2023-02-28T02:02:42;-0.30;99.90
39847;DHT22;25517;52.422;10.782;2023-02-28T02:05:17;-0.30;99.90
39847;DHT22;25517;52.422;10.782;2023-02-28T02:07:45;-0.30;99.90
39847;DHT22;25517;52.422;10.782;2023-02-28T02:16:30;-0.20;99.90
39847;DHT22;25517;52.422;10.782;2023-02-28T02:18:57;-0.20;99.90
39847;DHT22;25517;52.422;10.782;2023-02-28T02:24:20;-0.30;99.90
39847;DHT22;25517;52.422;10.782;2023-02-28T02:30:07;-0.30;99.90
39847;DHT22;25517;52.422;10.782;2023-02-28T02:41:14;-0.40;99.90
39847;DHT22;25517;52.422;10.782;2023-02-28T02:44:06;-0.40;99.90
39847;DHT22;25517;52.422;10.782;2023-02-28T02:46:41;-0.40;99.90
39847;DHT22;25517;52.422;10.782;2023-02-28T02:49:09;-0.40;99.90
39847;DHT22;25517;52.422;10.782;2023-02-28T02:51:38;-0.40;99.90
39847;DHT22;25517;52.422;10.782;2023-02-28T02:54:16;-0.40;99.90
39847;DHT22;25517;52.422;10.782;2023-02-28T02:56:45;-0.40;99.90
39847;DHT22;25517;52.422;10.782;2023-02-28T02:59:13;-0.50;99.90
39847;DHT22;25517;52.422;10.782;2023-02-28T03:01:41;-0.50;99.90
39847;DHT22;25517;52.422;10.782;2023-02-28T03:04:16;-0.50;99.90
39847;DHT22;25517;52.422;10.782;2023-02-28T03:06:42;-0.40;99.90
39847;DHT22;25517;52.422;10.782;2023-02-28T03:09:07;-0.40;99.90
39847;DHT22;25517;52.422;10.782;2023-02-28T03:11:35;-0.40;99.90
39847;DHT22;25517;52.422;10.782;2023-02-28T03:17:24;-0.50;99.90
39847;DHT22;25517;52.422;10.782;2023-02-28T03:20:12;-0.40;99.90
39847;DHT22;25517;52.422;10.782;2023-02-28T03:23:14;-0.40;99.90
39847;DHT22;25517;52.422;10.782;2023-02-28T03:31:19;-0.40;99.90
39847;DHT22;25517;52.422;10.782;2023-02-28T03:33:51;-0.50;99.90
39847;DHT22;25517;52.422;10.782;2023-02-28T03:36:29;-0.50;99.90
39847;DHT22;25517;52.422;10.782;2023-02-28T03:38:59;-0.50;99.90
39847;DHT22;25517;52.422;10.782;2023-02-28T03:41:42;-0.50;99.90
39847;DHT22;25517;52.422;10.782;2023-02-28T03:46:37;-0.60;99.90
39847;DHT22;25517;52.422;10.782;2023-02-28T03:49:14;-0.60;99.90
39847;DHT22;25517;52.422;10.782;2023-02-28T03:51:42;-0.70;99.90
39847;DHT22;25517;52.422;10.782;2023-02-28T03:54:17;-0.70;99.90
39847;DHT22;25517;52.422;10.782;2023-02-28T03:56:53;-0.80;99.90
39847;DHT22;25517;52.422;10.782;2023-02-28T03:59:26;-0.80;99.90
39847;DHT22;25517;52.422;10.782;2023-02-28T04:01:53;-0.90;99.90
39847;DHT22;25517;52.422;10.782;2023-02-28T04:04:20;-0.90;99.90
39847;DHT22;25517;52.422;10.782;2023-02-28T04:06:49;-0.90;99.90
39847;DHT22;25517;52.422;10.782;2023-02-28T04:09:15;-1.00;99.90
39847;DHT22;25517;52.422;10.782;2023-02-28T04:11:51;-1.00;99.90
39847;DHT22;25517;52.422;10.782;2023-02-28T04:14:17;-1.00;99.90
39847;DHT22;25517;52.422;10.782;2023-02-28T04:16:44;-1.10;99.90
39847;DHT22;25517;52.422;10.782;2023-02-28T04:19:11;-1.20;99.90
39847;DHT22;25517;52.422;10.782;2023-02-28T04:21:40;-1.20;99.90
39847;DHT22;25517;52.422;10.782;2023-02-28T04:24:07;-1.20;99.90
39847;DHT22;25517;52.422;10.782;2023-02-28T04:26:35;-1.20;99.90
39847;DHT22;25517;52.422;10.782;2023-02-28T04:29:03;-1.20;99.90
39847;DHT22;25517;52.422;10.782;2023-02-28T04:31:28;-1.10;99.90
39847;DHT22;25517;52.422;10.782;2023-02-28T04:33:54;-1.10;99.90
39847;DHT22;25517;52.422;10.782;2023-02-28T04:36:20;-1.10;99.90
39847;DHT22;25517;52.422;10.782;2023-02-28T04:38:45;-1.10;99.90
39847;DHT22;25517;52.422;10.782;2023-02-28T04:41:12;-1.00;99.90
39847;DHT22;25517;52.422;10.782;2023-02-28T04:43:38;-1.00;99.90
39847;DHT22;25517;52.422;10.782;2023-02-28T04:46:04;-1.00;99.90
39847;DHT22;25517;52.422;10.782;2023-02-28T04:48:32;-1.00;99.90
39847;DHT22;25517;52.422;10.782;2023-02-28T04:51:06;-1.10;99.90
39847;DHT22;25517;52.422;10.782;2023-02-28T04:53:32;-1.10;99.90
39847;DHT22;25517;52.422;10.782;2023-02-28T04:55:58;-1.10;99.90
39847;DHT22;25517;52.422;10.782;2023-02-28T04:58:24;-1.10;99.90
39847;DHT22;25517;52.422;10.782;2023-02-28T05:00:50;-1.20;99.90
39847;DHT22;25517;52.422;10.782;2023-02-28T05:03:16;-1.20;99.90
39847;DHT22;25517;52.422;10.782;2023-02-28T05:05:42;-1.20;99.90
39847;DHT22;25517;52.422;10.782;2023-02-28T05:08:07;-1.20;99.90
39847;DHT22;25517;52.422;10.782;2023-02-28T05:10:33;-1.30;99.90
39847;DHT22;25517;52.422;10.782;2023-02-28T05:12:59;-1.30;99.90
39847;DHT22;25517;52.422;10.782;2023-02-28T05:15:24;-1.40;99.90
39847;DHT22;25517;52.422;10.782;2023-02-28T05:17:50;-1.30;99.90
39847;DHT22;25517;52.422;10.782;2023-02-28T05:20:16;-1.30;99.90
39847;DHT22;25517;52.422;10.782;2023-02-28T05:22:42;-1.30;99.90
39847;DHT22;25517;52.422;10.782;2023-02-28T05:25:12;-1.30;99.90
39847;DHT22;25517;52.422;10.782;2023-02-28T05:27:38;-1.30;99.90
39847;DHT22;25517;52.422;10.782;2023-02-28T05:30:05;-1.30;99.90
39847;DHT22;25517;52.422;10.782;2023-02-28T05:32:31;-1.40;99.90
39847;DHT22;25517;52.422;10.782;2023-02-28T05:34:57;-1.40;99.90
39847;DHT22;25517;52.422;10.782;2023-02-28T05:37:22;-1.40;99.90
39847;DHT22;25517;52.422;10.782;2023-02-28T05:39:48;-1.40;99.90
39847;DHT22;25517;52.422;10.782;2023-02-28T05:42:13;-1.40;99.90
39847;DHT22;25517;52.422;10.782;2023-02-28T05:44:39;-1.50;99.90
39847;DHT22;25517;52.422;10.782;2023-02-28T05:47:04;-1.60;99.90
39847;DHT22;25517;52.422;10.782;2023-02-28T05:49:30;-1.60;99.90
39847;DHT22;25517;52.422;10.782;2023-02-28T05:51:55;-1.60;99.90
39847;DHT22;25517;52.422;10.782;2023-02-28T05:54:21;-1.60;99.90
39847;DHT22;25517;52.422;10.782;2023-02-28T05:56:47;-1.70;99.90
39847;DHT22;25517;52.422;10.782;2023-02-28T05:59:13;-1.70;99.90
39847;DHT22;25517;52.422;10.782;2023-02-28T06:01:44;-1.70;99.90
39847;DHT22;25517;52.422;10.782;2023-02-28T06:04:19;-1.70;99.90
39847;DHT22;25517;52.422;10.782;2023-02-28T06:06:46;-1.60;99.90
39847;DHT22;25517;52.422;10.782;2023-02-28T06:09:11;-1.60;99.90
39847;DHT22;25517;52.422;10.782;2023-02-28T06:11:37;-1.70;99.90
39847;DHT22;25517;52.422;10.782;2023-02-28T06:14:03;-1.70;99.90
39847;DHT22;25517;52.422;10.782;2023-02-28T06:16:30;-1.70;99.90
39847;DHT22;25517;52.422;10.782;2023-02-28T06:19:02;-1.70;99.90
39847;DHT22;25517;52.422;10.782;2023-02-28T06:21:28;-1.70;99.90
39847;DHT22;25517;52.422;10.782;2023-02-28T06:23:54;-1.60;99.90
39847;DHT22;25517;52.422;10.782;2023-02-28T06:26:20;-1.70;99.90
39847;DHT22;25517;52.422;10.782;2023-02-28T06:28:46;-1.70;99.90
39847;DHT22;25517;52.422;10.782;2023-02-28T06:31:14;-1.70;99.90
39847;DHT22;25517;52.422;10.782;2023-02-28T06:33:40;-1.70;99.90
39847;DHT22;25517;52.422;10.782;2023-02-28T06:36:08;-1.80;99.90
39847;DHT22;25517;52.422;10.782;2023-02-28T06:38:34;-1.80;99.90
39847;DHT22;25517;52.422;10.782;2023-02-28T06:41:01;-1.80;99.90
39847;DHT22;25517;52.422;10.782;2023-02-28T06:43:31;-1.70;99.90
39847;DHT22;25517;52.422;10.782;2023-02-28T06:45:59;-1.70;99.90
39847;DHT22;25517;52.422;10.782;2023-02-28T06:48:26;-1.70;99.90
39847;DHT22;25517;52.422;10.782;2023-02-28T06:50:52;-1.70;99.90
39847;DHT22;25517;52.422;10.782;2023-02-28T06:53:17;-1.70;99.90
39847;DHT22;25517;52.422;10.782;2023-02-28T06:55:43;-1.60;99.90
39847;DHT22;25517;52.422;10.782;2023-02-28T06:58:09;-1.60;99.90
39847;DHT22;25517;52.422;10.782;2023-02-28T07:00:42;-1.50;99.90
39847;DHT22;25517;52.422;10.782;2023-02-28T07:03:07;-1.50;99.90
39847;DHT22;25517;52.422;10.782;2023-02-28T07:05:35;-1.40;99.90
39847;DHT22;25517;52.422;10.782;2023-02-28T07:08:01;-1.50;99.90
39847;DHT22;25517;52.422;10.782;2023-02-28T07:10:27;-1.40;99.90
39847;DHT22;25517;52.422;10.782;2023-02-28T07:12:52;-1.40;99.90
39847;DHT22;25517;52.422;10.782;2023-02-28T07:15:18;-1.30;99.90
39847;DHT22;25517;52.422;10.782;2023-02-28T07:17:43;-1.30;99.90
39847;DHT22;25517;52.422;10.782;2023-02-28T07:20:09;-1.30;99.90
39847;DHT22;25517;52.422;10.782;2023-02-28T07:22:35;-1.20;99.90
39847;DHT22;25517;52.422;10.782;2023-02-28T07:25:00;-1.20;99.90
39847;DHT22;25517;52.422;10.782;2023-02-28T07:27:26;-1.10;99.90
39847;DHT22;25517;52.422;10.782;2023-02-28T07:29:52;-1.10;99.90
39847;DHT22;25517;52.422;10.782;2023-02-28T07:32:18;-1.10;99.90
39847;DHT22;25517;52.422;10.782;2023-02-28T07:34:44;-1.10;99.90
39847;DHT22;25517;52.422;10.782;2023-02-28T07:37:10;-1.00;99.90
39847;DHT22;25517;52.422;10.782;2023-02-28T07:39:35;-1.00;99.90
39847;DHT22;25517;52.422;10.782;2023-02-28T07:42:04;-0.90;99.90
39847;DHT22;25517;52.422;10.782;2023-02-28T07:44:30;-0.90;99.90
39847;DHT22;25517;52.422;10.782;2023-02-28T07:46:55;-0.80;99.90
39847;DHT22;25517;52.422;10.782;2023-02-28T07:49:21;-0.80;99.90
39847;DHT22;25517;52.422;10.782;2023-02-28T07:51:46;-0.70;99.90
39847;DHT22;25517;52.422;10.782;2023-02-28T07:54:12;-0.70;99.90
39847;DHT22;25517;52.422;10.782;2023-02-28T07:56:38;-0.60;99.90
39847;DHT22;25517;52.422;10.782;2023-02-28T07:59:03;-0.60;99.90
39847;DHT22;25517;52.422;10.782;2023-02-28T08:01:29;-0.50;99.90
39847;DHT22;25517;52.422;10.782;2023-02-28T08:03:54;-0.40;99.90
39847;DHT22;25517;52.422;10.782;2023-02-28T08:06:23;-0.30;99.90
39847;DHT22;25517;52.422;10.782;2023-02-28T08:08:49;-0.20;99.90
39847;DHT22;25517;52.422;10.782;2023-02-28T08:11:16;-0.10;99.90
39847;DHT22;25517;52.422;10.782;2023-02-28T08:13:42;-0.10;99.90
39847;DHT22;25517;52.422;10.782;2023-02-28T08:16:09;0.00;99.90
39847;DHT22;25517;52.422;10.782;2023-02-28T08:18:35;0.00;99.90
39847;DHT22;25517;52.422;10.782;2023-02-28T08:21:07;0.10;99.90
39847;DHT22;25517;52.422;10.782;2023-02-28T08:23:32;0.20;99.90
39847;DHT22;25517;52.422;10.782;2023-02-28T08:25:58;0.30;99.90
39847;DHT22;25517;52.422;10.782;2023-02-28T08:28:24;0.30;99.90
39847;DHT22;25517;52.422;10.782;2023-02-28T08:30:50;0.40;99.90
39847;DHT22;25517;52.422;10.782;2023-02-28T08:33:15;0.50;99.90
39847;DHT22;25517;52.422;10.782;2023-02-28T08:35:41;0.60;99.90
39847;DHT22;25517;52.422;10.782;2023-02-28T08:38:06;0.70;99.90
39847;DHT22;25517;52.422;10.782;2023-02-28T08:40:32;0.70;99.90
39847;DHT22;25517;52.422;10.782;2023-02-28T08:42:57;0.80;99.90
39847;DHT22;25517;52.422;10.782;2023-02-28T08:45:25;0.90;99.90
39847;DHT22;25517;52.422;10.782;2023-02-28T08:47:50;1.00;99.90
39847;DHT22;25517;52.422;10.782;2023-02-28T08:50:17;1.10;99.90
39847;DHT22;25517;52.422;10.782;2023-02-28T08:52:43;1.20;99.90
39847;DHT22;25517;52.422;10.782;2023-02-28T08:55:10;1.30;99.90
39847;DHT22;25517;52.422;10.782;2023-02-28T08:57:35;1.40;99.90
39847;DHT22;25517;52.422;10.782;2023-02-28T09:00:02;1.50;99.90
39847;DHT22;25517;52.422;10.782;2023-02-28T09:02:32;1.60;99.90
39847;DHT22;25517;52.422;10.782;2023-02-28T09:04:58;1.70;99.90
39847;DHT22;25517;52.422;10.782;2023-02-28T09:07:24;1.80;99.90
39847;DHT22;25517;52.422;10.782;2023-02-28T09:09:50;2.00;99.90
39847;DHT22;25517;52.422;10.782;2023-02-28T09:12:24;2.10;99.90
39847;DHT22;25517;52.422;10.782;2023-02-28T09:14:50;2.40;99.90
39847;DHT22;25517;52.422;10.782;2023-02-28T09:17:15;2.70;99.90
39847;DHT22;25517;52.422;10.782;2023-02-28T09:19:41;3.90;99.90
39847;DHT22;25517;52.422;10.782;2023-02-28T09:22:08;6.10;99.90
39847;DHT22;25517;52.422;10.782;2023-02-28T09:24:33;8.60;99.90
39847;DHT22;25517;52.422;10.782;2023-02-28T09:26:59;10.30;94.50
39847;DHT22;25517;52.422;10.782;2023-02-28T09:29:24;12.50;88.80
39847;DHT22;25517;52.422;10.782;2023-02-28T09:31:50;14.00;78.80
39847;DHT22;25517;52.422;10.782;2023-02-28T09:34:15;15.00;70.90
39847;DHT22;25517;52.422;10.782;2023-02-28T09:36:42;15.60;64.80
39847;DHT22;25517;52.422;10.782;2023-02-28T09:39:08;16.40;62.80
39847;DHT22;25517;52.422;10.782;2023-02-28T09:41:47;16.60;59.30
39847;DHT22;25517;52.422;10.782;2023-02-28T09:44:38;17.40;59.00
39847;DHT22;25517;52.422;10.782;2023-02-28T09:47:32;18.30;57.10
39847;DHT22;25517;52.422;10.782;2023-02-28T09:50:06;19.00;53.40
39847;DHT22;25517;52.422;10.782;2023-02-28T09:52:36;19.00;54.30
39847;DHT22;25517;52.422;10.782;2023-02-28T09:57:53;20.00;52.30
39847;DHT22;25517;52.422;10.782;2023-02-28T10:00:39;20.20;50.50
39847;DHT22;25517;52.422;10.782;2023-02-28T10:06:20;21.20;48.70
39847;DHT22;25517;52.422;10.782;2023-02-28T10:09:00;21.20;47.80
39847;DHT22;25517;52.422;10.782;2023-02-28T10:11:27;21.20;47.60
39847;DHT22;25517;52.422;10.782;2023-02-28T10:16:29;21.60;47.70
39847;DHT22;25517;52.422;10.782;2023-02-28T10:21:51;21.90;46.60
39847;DHT22;25517;52.422;10.782;2023-02-28T10:24:34;21.80;46.10
39847;DHT22;25517;52.422;10.782;2023-02-28T10:29:47;22.10;44.80
39847;DHT22;25517;52.422;10.782;2023-02-28T10:32:23;21.70;44.50
39847;DHT22;25517;52.422;10.782;2023-02-28T10:34:57;22.10;43.70
39847;DHT22;25517;52.422;10.782;2023-02-28T10:37:23;22.40;43.10
39847;DHT22;25517;52.422;10.782;2023-02-28T10:39:48;22.00;43.80
39847;DHT22;25517;52.422;10.782;2023-02-28T10:42:26;22.90;42.60
39847;DHT22;25517;52.422;10.782;2023-02-28T10:45:14;21.90;44.50
39847;DHT22;25517;52.422;10.782;2023-02-28T10:47:51;21.70;45.00
39847;DHT22;25517;52.422;10.782;2023-02-28T10:53:27;21.90;43.50
39847;DHT22;25517;52.422;10.782;2023-02-28T10:56:04;21.20;41.70
39847;DHT22;25517;52.422;10.782;2023-02-28T11:00:59;21.30;42.00
39847;DHT22;25517;52.422;10.782;2023-02-28T11:03:30;20.40;43.90
39847;DHT22;25517;52.422;10.782;2023-02-28T11:05:56;19.50;43.90
39847;DHT22;25517;52.422;10.782;2023-02-28T11:08:22;19.00;45.50
39847;DHT22;25517;52.422;10.782;2023-02-28T11:11:00;18.50;46.20
39847;DHT22;25517;52.422;10.782;2023-02-28T11:13:31;17.70;46.20
39847;DHT22;25517;52.422;10.782;2023-02-28T11:15:59;16.30;47.70
39847;DHT22;25517;52.422;10.782;2023-02-28T11:21:03;15.00;48.30
39847;DHT22;25517;52.422;10.782;2023-02-28T11:23:31;15.60;48.00
39847;DHT22;25517;52.422;10.782;2023-02-28T11:26:01;16.50;47.00
39847;DHT22;25517;52.422;10.782;2023-02-28T11:33:43;18.40;45.20
39847;DHT22;25517;52.422;10.782;2023-02-28T11:36:30;18.90;43.50
39847;DHT22;25517;52.422;10.782;2023-02-28T11:38:59;20.30;42.90
39847;DHT22;25517;52.422;10.782;2023-02-28T11:49:35;21.10;39.80
39847;DHT22;25517;52.422;10.782;2023-02-28T11:52:36;20.80;40.40
39847;DHT22;25517;52.422;10.782;2023-02-28T11:55:36;21.00;40.70
39847;DHT22;25517;52.422;10.782;2023-02-28T12:04:17;20.40;42.50
39847;DHT22;25517;52.422;10.782;2023-02-28T12:07:11;19.60;41.70
39847;DHT22;25517;52.422;10.782;2023-02-28T12:09:53;19.20;42.30
39847;DHT22;25517;52.422;10.782;2023-02-28T12:20:34;19.50;42.10
39847;DHT22;25517;52.422;10.782;2023-02-28T12:23:19;18.70;43.30
39847;DHT22;25517;52.422;10.782;2023-02-28T12:25:56;18.90;43.70
39847;DHT22;25517;52.422;10.782;2023-02-28T12:28:28;18.00;45.00
39847;DHT22;25517;52.422;10.782;2023-02-28T12:31:29;17.90;45.10
39847;DHT22;25517;52.422;10.782;2023-02-28T12:34:01;16.60;46.70
39847;DHT22;25517;52.422;10.782;2023-02-28T12:36:28;16.30;46.20
39847;DHT22;25517;52.422;10.782;2023-02-28T12:38:59;16.50;48.70
39847;DHT22;25517;52.422;10.782;2023-02-28T12:41:59;16.50;47.00
39847;DHT22;25517;52.422;10.782;2023-02-28T12:44:32;16.20;47.10
39847;DHT22;25517;52.422;10.782;2023-02-28T12:47:02;16.10;46.90
39847;DHT22;25517;52.422;10.782;2023-02-28T12:49:40;15.40;47.40
39847;DHT22;25517;52.422;10.782;2023-02-28T12:52:08;15.20;51.20
39847;DHT22;25517;52.422;10.782;2023-02-28T12:54:53;14.80;51.30
39847;DHT22;25517;52.422;10.782;2023-02-28T12:57:34;14.40;50.30
39847;DHT22;25517;52.422;10.782;2023-02-28T13:00:12;14.50;51.60
39847;DHT22;25517;52.422;10.782;2023-02-28T13:11:00;13.20;50.60
39847;DHT22;25517;52.422;10.782;2023-02-28T13:13:28;13.10;51.70
39847;DHT22;25517;52.422;10.782;2023-02-28T13:16:06;13.00;55.20
39847;DHT22;25517;52.422;10.782;2023-02-28T13:18:44;12.80;54.30
39847;DHT22;25517;52.422;10.782;2023-02-28T13:21:23;12.90;53.10
39847;DHT22;25517;52.422;10.782;2023-02-28T13:26:21;12.70;51.70
39847;DHT22;25517;52.422;10.782;2023-02-28T13:31:24;12.80;53.30
39847;DHT22;25517;52.422;10.782;2023-02-28T13:36:31;12.70;55.30
39847;DHT22;25517;52.422;10.782;2023-02-28T13:39:02;12.70;54.80
39847;DHT22;25517;52.422;10.782;2023-02-28T14:05:27;11.40;56.40
39847;DHT22;25517;52.422;10.782;2023-02-28T14:07:57;11.30;57.70
39847;DHT22;25517;52.422;10.782;2023-02-28T14:10:37;11.00;57.50
39847;DHT22;25517;52.422;10.782;2023-02-28T14:13:42;11.00;56.50
39847;DHT22;25517;52.422;10.782;2023-02-28T14:16:14;11.10;57.10
39847;DHT22;25517;52.422;10.782;2023-02-28T14:18:56;11.30;56.60
39847;DHT22;25517;52.422;10.782;2023-02-28T14:21:27;11.20;56.10
39847;DHT22;25517;52.422;10.782;2023-02-28T14:27:06;11.00;57.20
39847;DHT22;25517;52.422;10.782;2023-02-28T14:32:44;11.30;59.50
39847;DHT22;25517;52.422;10.782;2023-02-28T14:35:43;11.20;57.80
39847;DHT22;25517;52.422;10.782;2023-02-28T14:38:18;11.10;56.70
39847;DHT22;25517;52.422;10.782;2023-02-28T14:40:47;11.10;56.20
39847;DHT22;25517;52.422;10.782;2023-02-28T14:43:21;11.00;56.20
39847;DHT22;25517;52.422;10.782;2023-02-28T14:45:50;10.90;58.30
39847;DHT22;25517;52.422;10.782;2023-02-28T14:48:17;10.70;57.40
39847;DHT22;25517;52.422;10.782;2023-02-28T14:50:49;10.80;56.60
39847;DHT22;25517;52.422;10.782;2023-02-28T14:53:19;10.90;55.70
39847;DHT22;25517;52.422;10.782;2023-02-28T14:55:47;11.00;55.20
39847;DHT22;25517;52.422;10.782;2023-02-28T15:00:48;10.90;55.00
39847;DHT22;25517;52.422;10.782;2023-02-28T15:03:23;10.90;53.80
39847;DHT22;25517;52.422;10.782;2023-02-28T15:05:54;10.80;55.50
39847;DHT22;25517;52.422;10.782;2023-02-28T15:08:20;10.80;57.00
39847;DHT22;25517;52.422;10.782;2023-02-28T15:10:53;10.90;54.70
39847;DHT22;25517;52.422;10.782;2023-02-28T15:13:19;10.70;54.50
39847;DHT22;25517;52.422;10.782;2023-02-28T15:15:55;10.20;55.10
39847;DHT22;25517;52.422;10.782;2023-02-28T15:21:19;9.60;57.90
39847;DHT22;25517;52.422;10.782;2023-02-28T15:23:49;9.20;58.60
39847;DHT22;25517;52.422;10.782;2023-02-28T15:26:20;8.90;60.90
39847;DHT22;25517;52.422;10.782;2023-02-28T15:28:50;8.80;59.50
39847;DHT22;25517;52.422;10.782;2023-02-28T15:31:23;8.70;61.00
39847;DHT22;25517;52.422;10.782;2023-02-28T15:34:02;8.50;60.80
39847;DHT22;25517;52.422;10.782;2023-02-28T15:36:33;8.50;59.70
39847;DHT22;25517;52.422;10.782;2023-02-28T15:39:03;8.30;60.80
39847;DHT22;25517;52.422;10.782;2023-02-28T15:41:42;8.20;61.70
39847;DHT22;25517;52.422;10.782;2023-02-28T15:44:26;8.00;62.20
39847;DHT22;25517;52.422;10.782;2023-02-28T15:47:18;7.90;61.90
39847;DHT22;25517;52.422;10.782;2023-02-28T15:49:50;7.80;62.60
39847;DHT22;25517;52.422;10.782;2023-02-28T15:54:53;7.30;62.50
39847;DHT22;25517;52.422;10.782;2023-02-28T15:57:22;7.10;65.00
39847;DHT22;25517;52.422;10.782;2023-02-28T15:59:55;7.10;64.10
39847;DHT22;25517;52.422;10.782;2023-02-28T16:02:30;7.00;63.70
39847;DHT22;25517;52.422;10.782;2023-02-28T16:07:42;6.80;67.90
39847;DHT22;25517;52.422;10.782;2023-02-28T16:10:10;6.70;65.60
39847;DHT22;25517;52.422;10.782;2023-02-28T16:12:38;6.70;64.30
39847;DHT22;25517;52.422;10.782;2023-02-28T16:15:28;6.60;65.20
39847;DHT22;25517;52.422;10.782;2023-02-28T16:17:55;6.50;65.00
39847;DHT22;25517;52.422;10.782;2023-02-28T16:20:22;6.40;67.30
39847;DHT22;25517;52.422;10.782;2023-02-28T16:22:48;6.30;65.60
39847;DHT22;25517;52.422;10.782;2023-02-28T16:25:15;6.20;65.00
39847;DHT22;25517;52.422;10.782;2023-02-28T16:27:42;6.20;66.10
39847;DHT22;25517;52.422;10.782;2023-02-28T16:30:20;6.10;67.20
39847;DHT22;25517;52.422;10.782;2023-02-28T16:32:47;6.00;67.00
39847;DHT22;25517;52.422;10.782;2023-02-28T16:35:13;5.90;67.20
39847;DHT22;25517;52.422;10.782;2023-02-28T16:37:40;5.80;67.50
39847;DHT22;25517;52.422;10.782;2023-02-28T16:40:08;5.70;67.50
39847;DHT22;25517;52.422;10.782;2023-02-28T16:42:34;5.70;68.20
39847;DHT22;25517;52.422;10.782;2023-02-28T16:45:00;5.60;70.50
39847;DHT22;25517;52.422;10.782;2023-02-28T16:47:25;5.50;68.70
39847;DHT22;25517;52.422;10.782;2023-02-28T16:49:52;5.40;70.30
39847;DHT22;25517;52.422;10.782;2023-02-28T16:52:17;5.30;71.00
39847;DHT22;25517;52.422;10.782;2023-02-28T16:54:43;5.20;72.00
39847;DHT22;25517;52.422;10.782;2023-02-28T16:57:21;5.20;70.20
39847;DHT22;25517;52.422;10.782;2023-02-28T16:59:49;5.20;71.90
39847;DHT22;25517;52.422;10.782;2023-02-28T17:02:17;5.10;73.90
39847;DHT22;25517;52.422;10.782;2023-02-28T17:04:44;5.00;72.30
39847;DHT22;25517;52.422;10.782;2023-02-28T17:07:15;4.90;73.50
39847;DHT22;25517;52.422;10.782;2023-02-28T17:09:44;4.90;75.50
39847;DHT22;25517;52.422;10.782;2023-02-28T17:12:10;4.90;72.90
39847;DHT22;25517;52.422;10.782;2023-02-28T17:14:37;4.70;73.30
39847;DHT22;25517;52.422;10.782;2023-02-28T17:17:04;4.70;74.60
39847;DHT22;25517;52.422;10.782;2023-02-28T17:19:30;4.70;73.90
39847;DHT22;25517;52.422;10.782;2023-02-28T17:21:55;4.60;74.90
39847;DHT22;25517;52.422;10.782;2023-02-28T17:24:21;4.50;76.30
39847;DHT22;25517;52.422;10.782;2023-02-28T17:26:47;4.50;77.60
39847;DHT22;25517;52.422;10.782;2023-02-28T17:29:19;4.40;80.30
39847;DHT22;25517;52.422;10.782;2023-02-28T17:31:45;4.30;79.10
39847;DHT22;25517;52.422;10.782;2023-02-28T17:34:10;4.20;80.10
39847;DHT22;25517;52.422;10.782;2023-02-28T17:36:36;4.20;81.90
39847;DHT22;25517;52.422;10.782;2023-02-28T17:39:04;4.10;81.90
39847;DHT22;25517;52.422;10.782;2023-02-28T17:41:34;4.00;81.70
39847;DHT22;25517;52.422;10.782;2023-02-28T17:43:59;3.90;83.30
39847;DHT22;25517;52.422;10.782;2023-02-28T17:46:25;3.80;83.10
39847;DHT22;25517;52.422;10.782;2023-02-28T17:48:52;3.80;83.80
39847;DHT22;25517;52.422;10.782;2023-02-28T17:51:20;3.70;85.70
39847;DHT22;25517;52.422;10.782;2023-02-28T17:53:46;3.60;87.00
39847;DHT22;25517;52.422;10.782;2023-02-28T17:56:23;3.60;85.70